sensor_id;sensor_type;location;lat;lon;timestamp;P1;durP1;ratioP1;P2;durP2;ratioP2
7957;SDS011;4024;52.172;5.378;2023-08-08T00:01:25;10.77;;;4.80;;
7957;SDS011;4024;52.172;5.378;2023-08-08T00:03:51;9.73;;;4.93;;
7957;SDS011;4024;52.172;5.378;2023-08-08T00:06:16;8.00;;;4.40;;
7957;SDS011;4024;52.172;5.378;2023-08-08T00:08:42;9.33;;;4.23;;
7957;SDS011;4024;52.172;5.378;2023-08-08T00:11:08;8.27;;;4.53;;
7957;SDS011;4024;52.172;5.378;2023-08-08T00:13:33;8.43;;;4.80;;
7957;SDS011;4024;52.172;5.378;2023-08-08T00:15:59;8.83;;;4.50;;
7957;SDS011;4024;52.172;5.378;2023-08-08T00:18:25;7.73;;;4.13;;
7957;SDS011;4024;52.172;5.378;2023-08-08T00:20:50;9.13;;;4.03;;
7957;SDS011;4024;52.172;5.378;2023-08-08T00:23:16;8.17;;;4.00;;
7957;SDS011;4024;52.172;5.378;2023-08-08T00:25:41;14.77;;;4.60;;
7957;SDS011;4024;52.172;5.378;2023-08-08T00:28:07;9.20;;;4.30;;
7957;SDS011;4024;52.172;5.378;2023-08-08T00:30:32;10.50;;;4.43;;
7957;SDS011;4024;52.172;5.378;2023-08-08T00:32:58;8.33;;;4.00;;
7957;SDS011;4024;52.172;5.378;2023-08-08T00:35:23;11.07;;;4.20;;
7957;SDS011;4024;52.172;5.378;2023-08-08T00:37:49;11.60;;;4.43;;
7957;SDS011;4024;52.172;5.378;2023-08-08T00:40:14;10.73;;;4.20;;
7957;SDS011;4024;52.172;5.378;2023-08-08T00:42:40;9.23;;;4.13;;
7957;SDS011;4024;52.172;5.378;2023-08-08T00:45:06;10.63;;;4.70;;
7957;SDS011;4024;52.172;5.378;2023-08-08T00:47:32;11.40;;;4.40;;
7957;SDS011;4024;52.172;5.378;2023-08-08T00:49:59;10.33;;;4.63;;
7957;SDS011;4024;52.172;5.378;2023-08-08T00:52:26;6.47;;;4.00;;
7957;SDS011;4024;52.172;5.378;2023-08-08T00:54:52;10.37;;;4.93;;
7957;SDS011;4024;52.172;5.378;2023-08-08T00:57:18;12.13;;;4.67;;
7957;SDS011;4024;52.172;5.378;2023-08-08T00:59:43;10.50;;;4.80;;
7957;SDS011;4024;52.172;5.378;2023-08-08T01:02:09;8.00;;;3.90;;
7957;SDS011;4024;52.172;5.378;2023-08-08T01:04:36;6.63;;;4.20;;
7957;SDS011;4024;52.172;5.378;2023-08-08T01:10:05;9.93;;;4.27;;
7957;SDS011;4024;52.172;5.378;2023-08-08T01:12:45;10.30;;;4.40;;
7957;SDS011;4024;52.172;5.378;2023-08-08T01:15:12;12.67;;;5.50;;
7957;SDS011;4024;52.172;5.378;2023-08-08T01:17:38;9.10;;;4.70;;
7957;SDS011;4024;52.172;5.378;2023-08-08T01:20:07;9.00;;;4.70;;
7957;SDS011;4024;52.172;5.378;2023-08-08T01:22:44;7.87;;;4.23;;
7957;SDS011;4024;52.172;5.378;2023-08-08T01:25:20;9.10;;;4.57;;
7957;SDS011;4024;52.172;5.378;2023-08-08T01:27:46;11.07;;;5.27;;
7957;SDS011;4024;52.172;5.378;2023-08-08T01:30:12;8.07;;;4.47;;
7957;SDS011;4024;52.172;5.378;2023-08-08T01:32:38;9.20;;;5.17;;
7957;SDS011;4024;52.172;5.378;2023-08-08T01:35:03;10.30;;;5.10;;
7957;SDS011;4024;52.172;5.378;2023-08-08T01:37:30;13.10;;;5.10;;
7957;SDS011;4024;52.172;5.378;2023-08-08T01:40:00;10.17;;;4.30;;
7957;SDS011;4024;52.172;5.378;2023-08-08T01:42:27;13.13;;;5.13;;
7957;SDS011;4024;52.172;5.378;2023-08-08T01:44:53;15.03;;;5.33;;
7957;SDS011;4024;52.172;5.378;2023-08-08T01:47:20;16.77;;;5.77;;
7957;SDS011;4024;52.172;5.378;2023-08-08T01:49:46;10.37;;;4.67;;
7957;SDS011;4024;52.172;5.378;2023-08-08T01:52:12;17.10;;;5.90;;
7957;SDS011;4024;52.172;5.378;2023-08-08T01:54:37;11.50;;;5.50;;
7957;SDS011;4024;52.172;5.378;2023-08-08T01:57:03;11.77;;;4.70;;
7957;SDS011;4024;52.172;5.378;2023-08-08T01:59:29;10.77;;;4.73;;
7957;SDS011;4024;52.172;5.378;2023-08-08T02:01:54;11.13;;;4.87;;
7957;SDS011;4024;52.172;5.378;2023-08-08T02:04:20;11.30;;;5.40;;
7957;SDS011;4024;52.172;5.378;2023-08-08T02:06:46;8.73;;;4.67;;
7957;SDS011;4024;52.172;5.378;2023-08-08T02:09:11;9.03;;;4.77;;
7957;SDS011;4024;52.172;5.378;2023-08-08T02:11:39;11.20;;;4.70;;
7957;SDS011;4024;52.172;5.378;2023-08-08T02:14:05;8.90;;;4.97;;
7957;SDS011;4024;52.172;5.378;2023-08-08T02:16:31;8.20;;;4.73;;
7957;SDS011;4024;52.172;5.378;2023-08-08T02:18:56;13.03;;;4.83;;
7957;SDS011;4024;52.172;5.378;2023-08-08T02:21:22;11.20;;;4.27;;
7957;SDS011;4024;52.172;5.378;2023-08-08T02:23:47;8.33;;;4.33;;
7957;SDS011;4024;52.172;5.378;2023-08-08T02:26:13;11.03;;;4.00;;
7957;SDS011;4024;52.172;5.378;2023-08-08T02:28:38;8.47;;;4.40;;
7957;SDS011;4024;52.172;5.378;2023-08-08T02:31:04;8.37;;;4.37;;
7957;SDS011;4024;52.172;5.378;2023-08-08T02:33:29;7.93;;;4.30;;
7957;SDS011;4024;52.172;5.378;2023-08-08T02:35:55;8.37;;;4.33;;
7957;SDS011;4024;52.172;5.378;2023-08-08T02:38:21;8.93;;;4.20;;
7957;SDS011;4024;52.172;5.378;2023-08-08T02:40:47;12.53;;;4.27;;
7957;SDS011;4024;52.172;5.378;2023-08-08T02:43:12;8.83;;;4.23;;
7957;SDS011;4024;52.172;5.378;2023-08-08T02:45:38;5.87;;;3.77;;
7957;SDS011;4024;52.172;5.378;2023-08-08T02:48:04;8.37;;;4.10;;
7957;SDS011;4024;52.172;5.378;2023-08-08T02:50:30;8.23;;;4.03;;
7957;SDS011;4024;52.172;5.378;2023-08-08T02:52:56;8.70;;;4.60;;
7957;SDS011;4024;52.172;5.378;2023-08-08T02:55:21;9.23;;;4.30;;
7957;SDS011;4024;52.172;5.378;2023-08-08T02:57:47;9.90;;;4.50;;
7957;SDS011;4024;52.172;5.378;2023-08-08T03:00:12;9.73;;;4.50;;
7957;SDS011;4024;52.172;5.378;2023-08-08T03:02:38;9.87;;;4.60;;
7957;SDS011;4024;52.172;5.378;2023-08-08T03:05:04;10.57;;;4.10;;
7957;SDS011;4024;52.172;5.378;2023-08-08T03:07:30;10.57;;;4.40;;
7957;SDS011;4024;52.172;5.378;2023-08-08T03:09:56;7.10;;;3.93;;
7957;SDS011;4024;52.172;5.378;2023-08-08T03:12:21;8.67;;;4.13;;
7957;SDS011;4024;52.172;5.378;2023-08-08T03:14:47;5.50;;;3.57;;
7957;SDS011;4024;52.172;5.378;2023-08-08T03:17:13;5.93;;;3.90;;
7957;SDS011;4024;52.172;5.378;2023-08-08T03:19:38;10.40;;;4.07;;
7957;SDS011;4024;52.172;5.378;2023-08-08T03:22:04;8.33;;;4.07;;
7957;SDS011;4024;52.172;5.378;2023-08-08T03:24:29;9.37;;;3.93;;
7957;SDS011;4024;52.172;5.378;2023-08-08T03:26:55;7.07;;;3.97;;
7957;SDS011;4024;52.172;5.378;2023-08-08T03:29:20;7.63;;;4.47;;
7957;SDS011;4024;52.172;5.378;2023-08-08T03:31:46;9.63;;;4.20;;
7957;SDS011;4024;52.172;5.378;2023-08-08T03:34:12;8.00;;;4.07;;
7957;SDS011;4024;52.172;5.378;2023-08-08T03:36:37;7.73;;;4.30;;
7957;SDS011;4024;52.172;5.378;2023-08-08T03:39:03;9.47;;;4.17;;
7957;SDS011;4024;52.172;5.378;2023-08-08T03:41:28;9.03;;;4.13;;
7957;SDS011;4024;52.172;5.378;2023-08-08T03:43:54;8.13;;;4.30;;
7957;SDS011;4024;52.172;5.378;2023-08-08T03:46:21;8.13;;;3.80;;
7957;SDS011;4024;52.172;5.378;2023-08-08T03:48:47;8.17;;;3.93;;
7957;SDS011;4024;52.172;5.378;2023-08-08T03:51:12;6.63;;;4.17;;
7957;SDS011;4024;52.172;5.378;2023-08-08T03:53:38;5.67;;;4.20;;
7957;SDS011;4024;52.172;5.378;2023-08-08T03:56:04;8.97;;;3.83;;
7957;SDS011;4024;52.172;5.378;2023-08-08T03:58:30;8.40;;;3.70;;
7957;SDS011;4024;52.172;5.378;2023-08-08T04:00:55;8.67;;;4.07;;
7957;SDS011;4024;52.172;5.378;2023-08-08T04:03:21;9.23;;;4.40;;
7957;SDS011;4024;52.172;5.378;2023-08-08T04:05:47;9.43;;;4.57;;
7957;SDS011;4024;52.172;5.378;2023-08-08T04:08:13;6.90;;;3.57;;
7957;SDS011;4024;52.172;5.378;2023-08-08T04:10:39;8.67;;;4.00;;
7957;SDS011;4024;52.172;5.378;2023-08-08T04:13:05;8.83;;;3.70;;
7957;SDS011;4024;52.172;5.378;2023-08-08T04:15:30;8.37;;;4.37;;
7957;SDS011;4024;52.172;5.378;2023-08-08T04:17:56;7.20;;;4.30;;
7957;SDS011;4024;52.172;5.378;2023-08-08T04:20:22;10.03;;;4.03;;
7957;SDS011;4024;52.172;5.378;2023-08-08T04:22:47;5.80;;;3.77;;
7957;SDS011;4024;52.172;5.378;2023-08-08T04:25:13;10.63;;;4.07;;
7957;SDS011;4024;52.172;5.378;2023-08-08T04:27:40;6.10;;;3.40;;
7957;SDS011;4024;52.172;5.378;2023-08-08T04:30:06;8.07;;;3.67;;
7957;SDS011;4024;52.172;5.378;2023-08-08T04:32:32;6.60;;;3.60;;
7957;SDS011;4024;52.172;5.378;2023-08-08T04:34:57;5.57;;;3.70;;
7957;SDS011;4024;52.172;5.378;2023-08-08T04:37:23;8.20;;;3.70;;
7957;SDS011;4024;52.172;5.378;2023-08-08T04:39:49;7.83;;;3.60;;
7957;SDS011;4024;52.172;5.378;2023-08-08T04:42:14;9.50;;;4.20;;
7957;SDS011;4024;52.172;5.378;2023-08-08T04:44:40;8.40;;;4.30;;
7957;SDS011;4024;52.172;5.378;2023-08-08T04:47:05;8.57;;;3.67;;
7957;SDS011;4024;52.172;5.378;2023-08-08T04:49:31;9.43;;;3.97;;
7957;SDS011;4024;52.172;5.378;2023-08-08T04:51:56;6.57;;;3.40;;
7957;SDS011;4024;52.172;5.378;2023-08-08T04:54:22;5.93;;;3.27;;
7957;SDS011;4024;52.172;5.378;2023-08-08T04:56:48;7.90;;;3.30;;
7957;SDS011;4024;52.172;5.378;2023-08-08T04:59:13;4.40;;;3.20;;
7957;SDS011;4024;52.172;5.378;2023-08-08T05:01:39;10.23;;;3.30;;
7957;SDS011;4024;52.172;5.378;2023-08-08T05:04:04;7.13;;;3.53;;
7957;SDS011;4024;52.172;5.378;2023-08-08T05:06:30;8.83;;;3.77;;
7957;SDS011;4024;52.172;5.378;2023-08-08T05:08:56;6.50;;;3.67;;
7957;SDS011;4024;52.172;5.378;2023-08-08T05:11:21;5.83;;;3.30;;
7957;SDS011;4024;52.172;5.378;2023-08-08T05:13:47;4.13;;;2.90;;
7957;SDS011;4024;52.172;5.378;2023-08-08T05:16:13;9.57;;;3.10;;
7957;SDS011;4024;52.172;5.378;2023-08-08T05:18:39;7.77;;;3.43;;
7957;SDS011;4024;52.172;5.378;2023-08-08T05:21:05;6.60;;;3.00;;
7957;SDS011;4024;52.172;5.378;2023-08-08T05:23:31;5.43;;;3.27;;
7957;SDS011;4024;52.172;5.378;2023-08-08T05:25:56;4.43;;;3.00;;
7957;SDS011;4024;52.172;5.378;2023-08-08T05:28:22;5.90;;;3.40;;
7957;SDS011;4024;52.172;5.378;2023-08-08T05:30:47;5.40;;;2.93;;
7957;SDS011;4024;52.172;5.378;2023-08-08T05:33:13;7.40;;;3.33;;
7957;SDS011;4024;52.172;5.378;2023-08-08T05:35:39;6.70;;;2.87;;
7957;SDS011;4024;52.172;5.378;2023-08-08T05:38:04;5.93;;;3.20;;
7957;SDS011;4024;52.172;5.378;2023-08-08T05:40:30;8.70;;;3.20;;
7957;SDS011;4024;52.172;5.378;2023-08-08T05:42:55;6.20;;;3.13;;
7957;SDS011;4024;52.172;5.378;2023-08-08T05:45:21;5.30;;;3.10;;
7957;SDS011;4024;52.172;5.378;2023-08-08T05:47:46;4.80;;;2.80;;
7957;SDS011;4024;52.172;5.378;2023-08-08T05:50:12;5.23;;;3.13;;
7957;SDS011;4024;52.172;5.378;2023-08-08T05:52:37;7.30;;;2.87;;
7957;SDS011;4024;52.172;5.378;2023-08-08T05:55:03;6.23;;;2.70;;
7957;SDS011;4024;52.172;5.378;2023-08-08T05:57:29;3.83;;;2.60;;
7957;SDS011;4024;52.172;5.378;2023-08-08T05:59:55;6.03;;;2.60;;
7957;SDS011;4024;52.172;5.378;2023-08-08T06:02:20;3.63;;;2.40;;
7957;SDS011;4024;52.172;5.378;2023-08-08T06:04:46;6.83;;;2.60;;
7957;SDS011;4024;52.172;5.378;2023-08-08T06:07:12;5.27;;;2.97;;
7957;SDS011;4024;52.172;5.378;2023-08-08T06:09:37;4.83;;;2.90;;
7957;SDS011;4024;52.172;5.378;2023-08-08T06:12:03;6.87;;;3.03;;
7957;SDS011;4024;52.172;5.378;2023-08-08T06:14:30;6.63;;;2.93;;
7957;SDS011;4024;52.172;5.378;2023-08-08T06:16:55;4.83;;;2.63;;
7957;SDS011;4024;52.172;5.378;2023-08-08T06:19:21;6.10;;;2.63;;
7957;SDS011;4024;52.172;5.378;2023-08-08T06:21:46;4.77;;;2.30;;
7957;SDS011;4024;52.172;5.378;2023-08-08T06:24:12;5.00;;;2.30;;
7957;SDS011;4024;52.172;5.378;2023-08-08T06:26:38;3.23;;;2.33;;
7957;SDS011;4024;52.172;5.378;2023-08-08T06:29:03;6.97;;;2.53;;
7957;SDS011;4024;52.172;5.378;2023-08-08T06:31:29;5.07;;;2.30;;
7957;SDS011;4024;52.172;5.378;2023-08-08T06:33:55;8.27;;;2.97;;
7957;SDS011;4024;52.172;5.378;2023-08-08T06:36:20;4.50;;;2.40;;
7957;SDS011;4024;52.172;5.378;2023-08-08T06:38:46;3.07;;;2.10;;
7957;SDS011;4024;52.172;5.378;2023-08-08T06:41:12;3.97;;;2.30;;
7957;SDS011;4024;52.172;5.378;2023-08-08T06:43:37;3.70;;;2.30;;
7957;SDS011;4024;52.172;5.378;2023-08-08T06:46:03;3.97;;;2.30;;
7957;SDS011;4024;52.172;5.378;2023-08-08T06:48:29;4.10;;;2.33;;
7957;SDS011;4024;52.172;5.378;2023-08-08T06:50:55;6.67;;;2.90;;
7957;SDS011;4024;52.172;5.378;2023-08-08T06:53:21;3.80;;;2.13;;
7957;SDS011;4024;52.172;5.378;2023-08-08T06:55:46;7.43;;;2.53;;
7957;SDS011;4024;52.172;5.378;2023-08-08T06:58:12;4.50;;;2.07;;
7957;SDS011;4024;52.172;5.378;2023-08-08T07:00:38;5.40;;;2.10;;
7957;SDS011;4024;52.172;5.378;2023-08-08T07:03:03;4.90;;;2.10;;
7957;SDS011;4024;52.172;5.378;2023-08-08T07:05:29;4.20;;;1.80;;
7957;SDS011;4024;52.172;5.378;2023-08-08T07:07:54;5.50;;;2.03;;
7957;SDS011;4024;52.172;5.378;2023-08-08T07:10:20;5.27;;;2.10;;
7957;SDS011;4024;52.172;5.378;2023-08-08T07:12:45;5.93;;;2.30;;
7957;SDS011;4024;52.172;5.378;2023-08-08T07:15:11;6.37;;;2.13;;
7957;SDS011;4024;52.172;5.378;2023-08-08T07:17:37;5.40;;;2.17;;
7957;SDS011;4024;52.172;5.378;2023-08-08T07:20:03;5.77;;;2.20;;
7957;SDS011;4024;52.172;5.378;2023-08-08T07:22:30;5.23;;;1.80;;
7957;SDS011;4024;52.172;5.378;2023-08-08T07:24:57;5.87;;;2.00;;
7957;SDS011;4024;52.172;5.378;2023-08-08T07:27:23;5.50;;;2.13;;
7957;SDS011;4024;52.172;5.378;2023-08-08T07:29:49;7.70;;;2.27;;
7957;SDS011;4024;52.172;5.378;2023-08-08T07:32:14;4.90;;;2.40;;
7957;SDS011;4024;52.172;5.378;2023-08-08T07:34:40;3.83;;;1.90;;
7957;SDS011;4024;52.172;5.378;2023-08-08T07:37:06;7.50;;;2.53;;
7957;SDS011;4024;52.172;5.378;2023-08-08T07:39:31;3.03;;;1.80;;
7957;SDS011;4024;52.172;5.378;2023-08-08T07:41:57;4.63;;;1.80;;
7957;SDS011;4024;52.172;5.378;2023-08-08T07:44:22;2.73;;;1.80;;
7957;SDS011;4024;52.172;5.378;2023-08-08T07:46:48;4.70;;;1.70;;
7957;SDS011;4024;52.172;5.378;2023-08-08T07:49:14;5.53;;;2.00;;
7957;SDS011;4024;52.172;5.378;2023-08-08T07:51:39;4.83;;;1.80;;
7957;SDS011;4024;52.172;5.378;2023-08-08T07:54:05;4.57;;;2.20;;
7957;SDS011;4024;52.172;5.378;2023-08-08T07:56:33;2.20;;;1.60;;
7957;SDS011;4024;52.172;5.378;2023-08-08T07:58:59;6.93;;;1.70;;
7957;SDS011;4024;52.172;5.378;2023-08-08T08:01:26;3.40;;;1.73;;
7957;SDS011;4024;52.172;5.378;2023-08-08T08:03:52;4.07;;;1.57;;
7957;SDS011;4024;52.172;5.378;2023-08-08T08:06:18;1.60;;;1.50;;
7957;SDS011;4024;52.172;5.378;2023-08-08T08:08:43;5.23;;;2.10;;
7957;SDS011;4024;52.172;5.378;2023-08-08T08:11:09;2.40;;;1.70;;
7957;SDS011;4024;52.172;5.378;2023-08-08T08:13:36;3.53;;;1.60;;
7957;SDS011;4024;52.172;5.378;2023-08-08T08:16:01;4.47;;;1.73;;
7957;SDS011;4024;52.172;5.378;2023-08-08T08:18:27;1.57;;;1.40;;
7957;SDS011;4024;52.172;5.378;2023-08-08T08:20:53;2.03;;;1.70;;
7957;SDS011;4024;52.172;5.378;2023-08-08T08:23:20;5.73;;;1.70;;
7957;SDS011;4024;52.172;5.378;2023-08-08T08:25:45;3.80;;;1.70;;
7957;SDS011;4024;52.172;5.378;2023-08-08T08:28:11;1.73;;;1.43;;
7957;SDS011;4024;52.172;5.378;2023-08-08T08:30:36;2.80;;;1.60;;
7957;SDS011;4024;52.172;5.378;2023-08-08T08:33:02;2.40;;;1.40;;
7957;SDS011;4024;52.172;5.378;2023-08-08T08:35:29;2.47;;;1.63;;
7957;SDS011;4024;52.172;5.378;2023-08-08T08:37:54;2.97;;;1.80;;
7957;SDS011;4024;52.172;5.378;2023-08-08T08:40:20;3.40;;;1.57;;
7957;SDS011;4024;52.172;5.378;2023-08-08T08:42:46;1.87;;;1.43;;
7957;SDS011;4024;52.172;5.378;2023-08-08T08:45:13;1.87;;;1.50;;
7957;SDS011;4024;52.172;5.378;2023-08-08T08:47:40;1.90;;;1.57;;
7957;SDS011;4024;52.172;5.378;2023-08-08T08:50:09;2.53;;;1.60;;
7957;SDS011;4024;52.172;5.378;2023-08-08T08:52:34;4.30;;;1.80;;
7957;SDS011;4024;52.172;5.378;2023-08-08T08:55:00;3.17;;;1.83;;
7957;SDS011;4024;52.172;5.378;2023-08-08T08:57:27;5.70;;;1.80;;
7957;SDS011;4024;52.172;5.378;2023-08-08T08:59:53;1.60;;;1.50;;
7957;SDS011;4024;52.172;5.378;2023-08-08T09:02:19;2.83;;;1.30;;
7957;SDS011;4024;52.172;5.378;2023-08-08T09:04:45;1.77;;;1.60;;
7957;SDS011;4024;52.172;5.378;2023-08-08T09:07:12;4.27;;;1.60;;
7957;SDS011;4024;52.172;5.378;2023-08-08T09:09:40;1.83;;;1.47;;
7957;SDS011;4024;52.172;5.378;2023-08-08T09:12:08;1.57;;;1.33;;
7957;SDS011;4024;52.172;5.378;2023-08-08T09:14:33;1.77;;;1.40;;
7957;SDS011;4024;52.172;5.378;2023-08-08T09:17:04;3.80;;;1.70;;
7957;SDS011;4024;52.172;5.378;2023-08-08T09:19:42;2.50;;;1.37;;
7957;SDS011;4024;52.172;5.378;2023-08-08T09:22:09;4.17;;;1.60;;
7957;SDS011;4024;52.172;5.378;2023-08-08T09:24:37;3.60;;;1.60;;
7957;SDS011;4024;52.172;5.378;2023-08-08T09:27:04;1.70;;;1.60;;
7957;SDS011;4024;52.172;5.378;2023-08-08T09:29:30;2.23;;;1.50;;
7957;SDS011;4024;52.172;5.378;2023-08-08T09:31:57;2.13;;;1.50;;
7957;SDS011;4024;52.172;5.378;2023-08-08T09:34:26;1.93;;;1.50;;
7957;SDS011;4024;52.172;5.378;2023-08-08T09:36:53;1.83;;;1.33;;
7957;SDS011;4024;52.172;5.378;2023-08-08T09:39:19;4.60;;;1.70;;
7957;SDS011;4024;52.172;5.378;2023-08-08T09:41:45;3.33;;;1.60;;
7957;SDS011;4024;52.172;5.378;2023-08-08T09:44:11;1.63;;;1.37;;
7957;SDS011;4024;52.172;5.378;2023-08-08T09:46:37;3.00;;;1.57;;
7957;SDS011;4024;52.172;5.378;2023-08-08T09:49:04;2.40;;;1.50;;
7957;SDS011;4024;52.172;5.378;2023-08-08T09:51:31;2.37;;;1.63;;
7957;SDS011;4024;52.172;5.378;2023-08-08T09:53:58;3.27;;;1.80;;
7957;SDS011;4024;52.172;5.378;2023-08-08T09:56:25;1.63;;;1.50;;
7957;SDS011;4024;52.172;5.378;2023-08-08T09:58:51;2.60;;;1.50;;
7957;SDS011;4024;52.172;5.378;2023-08-08T10:01:18;2.90;;;1.60;;
7957;SDS011;4024;52.172;5.378;2023-08-08T10:03:45;2.40;;;1.53;;
7957;SDS011;4024;52.172;5.378;2023-08-08T10:06:10;3.03;;;1.67;;
7957;SDS011;4024;52.172;5.378;2023-08-08T10:08:36;3.63;;;1.70;;
7957;SDS011;4024;52.172;5.378;2023-08-08T10:11:02;2.67;;;1.70;;
7957;SDS011;4024;52.172;5.378;2023-08-08T10:13:30;4.87;;;1.80;;
7957;SDS011;4024;52.172;5.378;2023-08-08T10:15:56;2.60;;;1.60;;
7957;SDS011;4024;52.172;5.378;2023-08-08T10:18:22;2.97;;;1.53;;
7957;SDS011;4024;52.172;5.378;2023-08-08T10:20:49;3.57;;;1.60;;
7957;SDS011;4024;52.172;5.378;2023-08-08T10:23:16;2.80;;;1.60;;
7957;SDS011;4024;52.172;5.378;2023-08-08T10:25:50;3.03;;;1.60;;
7957;SDS011;4024;52.172;5.378;2023-08-08T10:28:18;3.17;;;1.60;;
7957;SDS011;4024;52.172;5.378;2023-08-08T10:30:55;1.87;;;1.60;;
7957;SDS011;4024;52.172;5.378;2023-08-08T10:33:23;2.30;;;1.60;;
7957;SDS011;4024;52.172;5.378;2023-08-08T10:38:23;2.13;;;1.63;;
7957;SDS011;4024;52.172;5.378;2023-08-08T10:40:57;3.47;;;1.67;;
7957;SDS011;4024;52.172;5.378;2023-08-08T10:43:27;1.53;;;1.40;;
7957;SDS011;4024;52.172;5.378;2023-08-08T10:45:56;2.80;;;1.67;;
7957;SDS011;4024;52.172;5.378;2023-08-08T10:48:24;2.30;;;1.63;;
7957;SDS011;4024;52.172;5.378;2023-08-08T10:50:51;2.67;;;1.30;;
7957;SDS011;4024;52.172;5.378;2023-08-08T10:53:22;3.03;;;1.60;;
7957;SDS011;4024;52.172;5.378;2023-08-08T10:55:56;2.37;;;1.43;;
7957;SDS011;4024;52.172;5.378;2023-08-08T10:58:38;1.90;;;1.50;;
7957;SDS011;4024;52.172;5.378;2023-08-08T11:01:05;1.93;;;1.40;;
7957;SDS011;4024;52.172;5.378;2023-08-08T11:03:36;1.70;;;1.40;;
7957;SDS011;4024;52.172;5.378;2023-08-08T11:06:02;2.13;;;1.40;;
7957;SDS011;4024;52.172;5.378;2023-08-08T11:08:31;1.60;;;1.50;;
7957;SDS011;4024;52.172;5.378;2023-08-08T11:10:58;1.87;;;1.50;;
7957;SDS011;4024;52.172;5.378;2023-08-08T11:13:24;2.20;;;1.50;;
7957;SDS011;4024;52.172;5.378;2023-08-08T11:15:50;3.03;;;1.60;;
7957;SDS011;4024;52.172;5.378;2023-08-08T11:18:16;2.80;;;1.70;;
7957;SDS011;4024;52.172;5.378;2023-08-08T11:20:42;3.10;;;1.53;;
7957;SDS011;4024;52.172;5.378;2023-08-08T11:23:07;3.07;;;1.50;;
7957;SDS011;4024;52.172;5.378;2023-08-08T11:25:36;4.57;;;1.70;;
7957;SDS011;4024;52.172;5.378;2023-08-08T11:28:02;1.20;;;1.10;;
7957;SDS011;4024;52.172;5.378;2023-08-08T11:30:29;1.97;;;1.40;;
7957;SDS011;4024;52.172;5.378;2023-08-08T11:32:57;2.63;;;1.30;;
7957;SDS011;4024;52.172;5.378;2023-08-08T11:35:24;4.43;;;1.67;;
7957;SDS011;4024;52.172;5.378;2023-08-08T11:37:52;2.83;;;1.60;;
7957;SDS011;4024;52.172;5.378;2023-08-08T11:40:18;3.70;;;1.50;;
7957;SDS011;4024;52.172;5.378;2023-08-08T11:42:45;3.43;;;1.60;;
7957;SDS011;4024;52.172;5.378;2023-08-08T11:45:12;3.33;;;1.67;;
7957;SDS011;4024;52.172;5.378;2023-08-08T11:47:41;2.27;;;1.60;;
7957;SDS011;4024;52.172;5.378;2023-08-08T11:50:07;2.57;;;1.67;;
7957;SDS011;4024;52.172;5.378;2023-08-08T11:52:35;2.23;;;1.60;;
7957;SDS011;4024;52.172;5.378;2023-08-08T11:55:10;3.27;;;1.80;;
7957;SDS011;4024;52.172;5.378;2023-08-08T11:57:37;1.83;;;1.50;;
7957;SDS011;4024;52.172;5.378;2023-08-08T12:00:06;2.67;;;1.70;;
7957;SDS011;4024;52.172;5.378;2023-08-08T12:02:34;5.77;;;1.77;;
7957;SDS011;4024;52.172;5.378;2023-08-08T12:05:07;1.83;;;1.40;;
7957;SDS011;4024;52.172;5.378;2023-08-08T12:07:34;2.90;;;1.60;;
7957;SDS011;4024;52.172;5.378;2023-08-08T12:10:00;2.03;;;1.67;;
7957;SDS011;4024;52.172;5.378;2023-08-08T12:12:30;3.00;;;1.53;;
7957;SDS011;4024;52.172;5.378;2023-08-08T12:14:59;4.37;;;1.90;;
7957;SDS011;4024;52.172;5.378;2023-08-08T12:17:28;1.73;;;1.60;;
7957;SDS011;4024;52.172;5.378;2023-08-08T12:19:54;3.27;;;1.70;;
7957;SDS011;4024;52.172;5.378;2023-08-08T12:22:25;2.73;;;1.40;;
7957;SDS011;4024;52.172;5.378;2023-08-08T12:24:51;1.60;;;1.50;;
7957;SDS011;4024;52.172;5.378;2023-08-08T12:27:16;1.80;;;1.57;;
7957;SDS011;4024;52.172;5.378;2023-08-08T12:29:42;7.97;;;1.67;;
7957;SDS011;4024;52.172;5.378;2023-08-08T12:32:08;2.50;;;1.70;;
7957;SDS011;4024;52.172;5.378;2023-08-08T12:34:34;4.43;;;2.00;;
7957;SDS011;4024;52.172;5.378;2023-08-08T12:37:00;1.80;;;1.33;;
7957;SDS011;4024;52.172;5.378;2023-08-08T12:39:26;2.10;;;1.70;;
7957;SDS011;4024;52.172;5.378;2023-08-08T12:41:51;2.93;;;1.60;;
7957;SDS011;4024;52.172;5.378;2023-08-08T12:44:17;1.47;;;1.37;;
7957;SDS011;4024;52.172;5.378;2023-08-08T12:46:42;3.43;;;1.50;;
7957;SDS011;4024;52.172;5.378;2023-08-08T12:49:08;3.33;;;1.60;;
7957;SDS011;4024;52.172;5.378;2023-08-08T12:51:33;3.90;;;1.47;;
7957;SDS011;4024;52.172;5.378;2023-08-08T12:53:59;2.30;;;1.80;;
7957;SDS011;4024;52.172;5.378;2023-08-08T12:56:25;1.97;;;1.70;;
7957;SDS011;4024;52.172;5.378;2023-08-08T12:58:50;3.03;;;1.70;;
7957;SDS011;4024;52.172;5.378;2023-08-08T13:01:16;1.90;;;1.67;;
7957;SDS011;4024;52.172;5.378;2023-08-08T13:03:41;1.67;;;1.40;;
7957;SDS011;4024;52.172;5.378;2023-08-08T13:06:07;2.53;;;1.40;;
7957;SDS011;4024;52.172;5.378;2023-08-08T13:08:32;2.30;;;1.70;;
7957;SDS011;4024;52.172;5.378;2023-08-08T13:10:59;2.17;;;1.73;;
7957;SDS011;4024;52.172;5.378;2023-08-08T13:13:24;2.30;;;1.60;;
7957;SDS011;4024;52.172;5.378;2023-08-08T13:15:51;2.77;;;1.67;;
7957;SDS011;4024;52.172;5.378;2023-08-08T13:18:17;2.80;;;1.60;;
7957;SDS011;4024;52.172;5.378;2023-08-08T13:20:42;1.90;;;1.70;;
7957;SDS011;4024;52.172;5.378;2023-08-08T13:23:08;3.83;;;1.80;;
7957;SDS011;4024;52.172;5.378;2023-08-08T13:25:34;3.43;;;1.50;;
7957;SDS011;4024;52.172;5.378;2023-08-08T13:28:00;2.27;;;1.60;;
7957;SDS011;4024;52.172;5.378;2023-08-08T13:30:28;1.97;;;1.50;;
7957;SDS011;4024;52.172;5.378;2023-08-08T13:32:54;2.87;;;1.67;;
7957;SDS011;4024;52.172;5.378;2023-08-08T13:35:19;3.40;;;1.80;;
7957;SDS011;4024;52.172;5.378;2023-08-08T13:37:45;2.60;;;1.80;;
7957;SDS011;4024;52.172;5.378;2023-08-08T13:40:14;2.97;;;1.80;;
7957;SDS011;4024;52.172;5.378;2023-08-08T13:42:40;6.00;;;2.17;;
7957;SDS011;4024;52.172;5.378;2023-08-08T13:45:06;3.07;;;1.63;;
7957;SDS011;4024;52.172;5.378;2023-08-08T13:47:32;1.83;;;1.60;;
7957;SDS011;4024;52.172;5.378;2023-08-08T13:49:57;2.67;;;1.60;;
7957;SDS011;4024;52.172;5.378;2023-08-08T13:52:23;2.10;;;1.60;;
7957;SDS011;4024;52.172;5.378;2023-08-08T13:54:49;3.70;;;2.00;;
7957;SDS011;4024;52.172;5.378;2023-08-08T13:57:14;1.70;;;1.57;;
7957;SDS011;4024;52.172;5.378;2023-08-08T13:59:40;2.73;;;1.60;;
7957;SDS011;4024;52.172;5.378;2023-08-08T14:02:05;2.30;;;1.67;;
7957;SDS011;4024;52.172;5.378;2023-08-08T14:04:31;3.40;;;1.77;;
7957;SDS011;4024;52.172;5.378;2023-08-08T14:06:57;2.77;;;1.83;;
7957;SDS011;4024;52.172;5.378;2023-08-08T14:09:22;3.53;;;1.67;;
7957;SDS011;4024;52.172;5.378;2023-08-08T14:11:48;3.33;;;1.80;;
7957;SDS011;4024;52.172;5.378;2023-08-08T14:14:13;5.03;;;2.00;;
7957;SDS011;4024;52.172;5.378;2023-08-08T14:16:39;1.87;;;1.60;;
7957;SDS011;4024;52.172;5.378;2023-08-08T14:19:04;1.57;;;1.40;;
7957;SDS011;4024;52.172;5.378;2023-08-08T14:21:30;2.00;;;1.80;;
7957;SDS011;4024;52.172;5.378;2023-08-08T14:23:56;3.33;;;1.80;;
7957;SDS011;4024;52.172;5.378;2023-08-08T14:26:21;2.00;;;1.60;;
7957;SDS011;4024;52.172;5.378;2023-08-08T14:28:47;3.03;;;1.50;;
7957;SDS011;4024;52.172;5.378;2023-08-08T14:31:12;3.63;;;1.60;;
7957;SDS011;4024;52.172;5.378;2023-08-08T14:33:38;2.10;;;1.50;;
7957;SDS011;4024;52.172;5.378;2023-08-08T14:36:03;2.23;;;1.70;;
7957;SDS011;4024;52.172;5.378;2023-08-08T14:38:33;2.10;;;1.60;;
7957;SDS011;4024;52.172;5.378;2023-08-08T14:41:00;2.97;;;1.77;;
7957;SDS011;4024;52.172;5.378;2023-08-08T14:43:25;3.47;;;1.77;;
7957;SDS011;4024;52.172;5.378;2023-08-08T14:45:51;3.83;;;1.90;;
7957;SDS011;4024;52.172;5.378;2023-08-08T14:48:17;3.27;;;1.83;;
7957;SDS011;4024;52.172;5.378;2023-08-08T14:50:43;3.27;;;1.70;;
7957;SDS011;4024;52.172;5.378;2023-08-08T14:53:08;2.83;;;1.90;;
7957;SDS011;4024;52.172;5.378;2023-08-08T14:55:34;5.10;;;1.90;;
7957;SDS011;4024;52.172;5.378;2023-08-08T14:58:00;3.07;;;1.80;;
7957;SDS011;4024;52.172;5.378;2023-08-08T15:00:25;6.70;;;1.80;;
7957;SDS011;4024;52.172;5.378;2023-08-08T15:02:51;3.17;;;1.70;;
7957;SDS011;4024;52.172;5.378;2023-08-08T15:05:17;2.20;;;1.70;;
7957;SDS011;4024;52.172;5.378;2023-08-08T15:07:42;2.87;;;1.60;;
7957;SDS011;4024;52.172;5.378;2023-08-08T15:10:08;2.83;;;1.70;;
7957;SDS011;4024;52.172;5.378;2023-08-08T15:12:34;3.07;;;1.60;;
7957;SDS011;4024;52.172;5.378;2023-08-08T15:15:00;1.77;;;1.60;;